sensor_id;sensor_type;location;lat;lon;timestamp;P1;durP1;ratioP1;P2;durP2;ratioP2
6362;SDS011;3214;49.932;8.494;2024-03-02T00:01:41;26.87;;;9.70;;
6362;SDS011;3214;49.932;8.494;2024-03-02T00:04:08;6.00;;;3.60;;
6362;SDS011;3214;49.932;8.494;2024-03-02T00:06:36;3.03;;;2.43;;
6362;SDS011;3214;49.932;8.494;2024-03-02T00:09:03;3.60;;;2.90;;
6362;SDS011;3214;49.932;8.494;2024-03-02T00:11:29;3.60;;;2.67;;
6362;SDS011;3214;49.932;8.494;2024-03-02T00:13:58;3.83;;;3.10;;
6362;SDS011;3214;49.932;8.494;2024-03-02T00:16:29;5.43;;;3.57;;
6362;SDS011;3214;49.932;8.494;2024-03-02T00:19:00;6.93;;;3.67;;
6362;SDS011;3214;49.932;8.494;2024-03-02T00:21:28;6.47;;;4.13;;
6362;SDS011;3214;49.932;8.494;2024-03-02T00:23:57;5.80;;;3.80;;
6362;SDS011;3214;49.932;8.494;2024-03-02T00:26:25;5.30;;;3.70;;
6362;SDS011;3214;49.932;8.494;2024-03-02T00:28:52;5.70;;;3.93;;
6362;SDS011;3214;49.932;8.494;2024-03-02T00:31:22;4.90;;;3.70;;
6362;SDS011;3214;49.932;8.494;2024-03-02T00:33:51;5.50;;;3.60;;
6362;SDS011;3214;49.932;8.494;2024-03-02T00:36:22;5.07;;;3.60;;
6362;SDS011;3214;49.932;8.494;2024-03-02T00:38:52;6.37;;;4.70;;
6362;SDS011;3214;49.932;8.494;2024-03-02T00:41:21;6.93;;;4.40;;
6362;SDS011;3214;49.932;8.494;2024-03-02T00:43:51;6.57;;;4.40;;
6362;SDS011;3214;49.932;8.494;2024-03-02T00:46:23;6.73;;;4.60;;
6362;SDS011;3214;49.932;8.494;2024-03-02T00:48:55;6.27;;;4.50;;
6362;SDS011;3214;49.932;8.494;2024-03-02T00:51:23;8.77;;;4.90;;
6362;SDS011;3214;49.932;8.494;2024-03-02T00:53:51;12.83;;;5.33;;
6362;SDS011;3214;49.932;8.494;2024-03-02T00:56:20;8.80;;;4.70;;
6362;SDS011;3214;49.932;8.494;2024-03-02T00:58:48;6.10;;;4.20;;
6362;SDS011;3214;49.932;8.494;2024-03-02T01:01:15;4.57;;;3.70;;
6362;SDS011;3214;49.932;8.494;2024-03-02T01:03:42;4.73;;;3.70;;
6362;SDS011;3214;49.932;8.494;2024-03-02T01:06:10;7.30;;;4.17;;
6362;SDS011;3214;49.932;8.494;2024-03-02T01:08:37;4.73;;;3.60;;
6362;SDS011;3214;49.932;8.494;2024-03-02T01:11:04;5.53;;;3.80;;
6362;SDS011;3214;49.932;8.494;2024-03-02T01:13:31;6.53;;;4.33;;
6362;SDS011;3214;49.932;8.494;2024-03-02T01:15:58;5.83;;;3.80;;
6362;SDS011;3214;49.932;8.494;2024-03-02T01:18:25;6.20;;;4.17;;
6362;SDS011;3214;49.932;8.494;2024-03-02T01:20:52;7.87;;;4.60;;
6362;SDS011;3214;49.932;8.494;2024-03-02T01:23:22;6.20;;;4.20;;
6362;SDS011;3214;49.932;8.494;2024-03-02T01:25:49;6.27;;;4.13;;
6362;SDS011;3214;49.932;8.494;2024-03-02T01:28:16;5.77;;;4.10;;
6362;SDS011;3214;49.932;8.494;2024-03-02T01:30:43;6.53;;;4.23;;
6362;SDS011;3214;49.932;8.494;2024-03-02T01:33:10;8.07;;;4.00;;
6362;SDS011;3214;49.932;8.494;2024-03-02T01:35:37;6.43;;;4.30;;
6362;SDS011;3214;49.932;8.494;2024-03-02T01:38:03;5.83;;;4.23;;
6362;SDS011;3214;49.932;8.494;2024-03-02T01:40:33;6.23;;;3.63;;
6362;SDS011;3214;49.932;8.494;2024-03-02T01:43:00;6.43;;;3.90;;
6362;SDS011;3214;49.932;8.494;2024-03-02T01:45:27;4.57;;;3.43;;
6362;SDS011;3214;49.932;8.494;2024-03-02T01:47:54;5.73;;;4.23;;
6362;SDS011;3214;49.932;8.494;2024-03-02T01:50:24;6.23;;;4.30;;
6362;SDS011;3214;49.932;8.494;2024-03-02T01:52:51;7.30;;;4.80;;
6362;SDS011;3214;49.932;8.494;2024-03-02T01:55:18;6.83;;;4.30;;
6362;SDS011;3214;49.932;8.494;2024-03-02T01:57:47;7.07;;;5.17;;
6362;SDS011;3214;49.932;8.494;2024-03-02T02:00:15;7.53;;;4.67;;
6362;SDS011;3214;49.932;8.494;2024-03-02T02:02:42;7.43;;;4.23;;
6362;SDS011;3214;49.932;8.494;2024-03-02T02:05:09;6.70;;;4.73;;
6362;SDS011;3214;49.932;8.494;2024-03-02T02:07:36;8.53;;;4.80;;
6362;SDS011;3214;49.932;8.494;2024-03-02T02:10:03;7.10;;;5.10;;
6362;SDS011;3214;49.932;8.494;2024-03-02T02:12:31;7.03;;;5.27;;
6362;SDS011;3214;49.932;8.494;2024-03-02T02:15:00;7.10;;;5.13;;
6362;SDS011;3214;49.932;8.494;2024-03-02T02:17:27;7.33;;;5.20;;
6362;SDS011;3214;49.932;8.494;2024-03-02T02:19:55;6.13;;;4.77;;
6362;SDS011;3214;49.932;8.494;2024-03-02T02:22:24;7.50;;;5.50;;
6362;SDS011;3214;49.932;8.494;2024-03-02T02:24:51;7.60;;;5.47;;
6362;SDS011;3214;49.932;8.494;2024-03-02T02:27:17;9.13;;;6.07;;
6362;SDS011;3214;49.932;8.494;2024-03-02T02:29:44;10.30;;;5.63;;
6362;SDS011;3214;49.932;8.494;2024-03-02T02:32:11;7.67;;;5.70;;
6362;SDS011;3214;49.932;8.494;2024-03-02T02:34:38;9.47;;;5.90;;
6362;SDS011;3214;49.932;8.494;2024-03-02T02:37:05;9.10;;;5.80;;
6362;SDS011;3214;49.932;8.494;2024-03-02T02:39:33;8.37;;;5.47;;
6362;SDS011;3214;49.932;8.494;2024-03-02T02:41:59;7.47;;;5.63;;
6362;SDS011;3214;49.932;8.494;2024-03-02T02:44:27;9.90;;;6.17;;
6362;SDS011;3214;49.932;8.494;2024-03-02T02:46:54;10.23;;;6.10;;
6362;SDS011;3214;49.932;8.494;2024-03-02T02:49:21;10.90;;;6.60;;
6362;SDS011;3214;49.932;8.494;2024-03-02T02:51:47;11.23;;;6.50;;
6362;SDS011;3214;49.932;8.494;2024-03-02T02:54:14;9.13;;;6.20;;
6362;SDS011;3214;49.932;8.494;2024-03-02T02:56:42;7.30;;;5.47;;
6362;SDS011;3214;49.932;8.494;2024-03-02T02:59:09;9.47;;;5.00;;
6362;SDS011;3214;49.932;8.494;2024-03-02T03:01:36;11.43;;;7.00;;
6362;SDS011;3214;49.932;8.494;2024-03-02T03:04:02;8.40;;;5.97;;
6362;SDS011;3214;49.932;8.494;2024-03-02T03:06:30;10.00;;;6.93;;
6362;SDS011;3214;49.932;8.494;2024-03-02T03:08:56;10.17;;;6.03;;
6362;SDS011;3214;49.932;8.494;2024-03-02T03:11:23;8.43;;;5.60;;
6362;SDS011;3214;49.932;8.494;2024-03-02T03:13:52;7.60;;;5.33;;
6362;SDS011;3214;49.932;8.494;2024-03-02T03:16:20;9.53;;;5.57;;
6362;SDS011;3214;49.932;8.494;2024-03-02T03:18:47;6.27;;;5.10;;
6362;SDS011;3214;49.932;8.494;2024-03-02T03:21:16;8.23;;;5.10;;
6362;SDS011;3214;49.932;8.494;2024-03-02T03:23:43;7.07;;;4.93;;
6362;SDS011;3214;49.932;8.494;2024-03-02T03:26:09;6.70;;;4.90;;
6362;SDS011;3214;49.932;8.494;2024-03-02T03:28:36;9.03;;;4.67;;
6362;SDS011;3214;49.932;8.494;2024-03-02T03:31:05;7.37;;;4.70;;
6362;SDS011;3214;49.932;8.494;2024-03-02T03:33:32;7.67;;;4.80;;
6362;SDS011;3214;49.932;8.494;2024-03-02T03:35:59;8.20;;;5.33;;
6362;SDS011;3214;49.932;8.494;2024-03-02T03:38:26;8.63;;;6.00;;
6362;SDS011;3214;49.932;8.494;2024-03-02T03:40:52;10.10;;;5.67;;
6362;SDS011;3214;49.932;8.494;2024-03-02T03:43:20;9.53;;;5.90;;
6362;SDS011;3214;49.932;8.494;2024-03-02T03:45:46;7.47;;;5.40;;
6362;SDS011;3214;49.932;8.494;2024-03-02T03:48:14;9.87;;;6.37;;
6362;SDS011;3214;49.932;8.494;2024-03-02T03:50:41;10.00;;;6.23;;
6362;SDS011;3214;49.932;8.494;2024-03-02T03:53:08;9.10;;;6.10;;
6362;SDS011;3214;49.932;8.494;2024-03-02T03:55:35;10.40;;;7.03;;
6362;SDS011;3214;49.932;8.494;2024-03-02T03:58:01;12.10;;;7.27;;
6362;SDS011;3214;49.932;8.494;2024-03-02T04:00:28;9.33;;;6.20;;
6362;SDS011;3214;49.932;8.494;2024-03-02T04:02:55;11.40;;;7.00;;
6362;SDS011;3214;49.932;8.494;2024-03-02T04:05:24;9.87;;;6.43;;
6362;SDS011;3214;49.932;8.494;2024-03-02T04:07:50;9.67;;;6.50;;
6362;SDS011;3214;49.932;8.494;2024-03-02T04:10:17;11.57;;;6.43;;
6362;SDS011;3214;49.932;8.494;2024-03-02T04:12:45;10.80;;;6.07;;
6362;SDS011;3214;49.932;8.494;2024-03-02T04:15:12;10.40;;;7.07;;
6362;SDS011;3214;49.932;8.494;2024-03-02T04:17:39;10.73;;;6.73;;
6362;SDS011;3214;49.932;8.494;2024-03-02T04:20:06;9.60;;;6.50;;
6362;SDS011;3214;49.932;8.494;2024-03-02T04:22:35;11.27;;;7.20;;
6362;SDS011;3214;49.932;8.494;2024-03-02T04:25:01;9.63;;;7.30;;
6362;SDS011;3214;49.932;8.494;2024-03-02T04:27:29;11.30;;;7.33;;
6362;SDS011;3214;49.932;8.494;2024-03-02T04:29:57;13.30;;;7.97;;
6362;SDS011;3214;49.932;8.494;2024-03-02T04:32:25;10.63;;;7.13;;
6362;SDS011;3214;49.932;8.494;2024-03-02T04:34:52;13.40;;;8.27;;
6362;SDS011;3214;49.932;8.494;2024-03-02T04:37:19;13.03;;;8.03;;
6362;SDS011;3214;49.932;8.494;2024-03-02T04:39:47;11.50;;;7.90;;
6362;SDS011;3214;49.932;8.494;2024-03-02T04:42:13;10.80;;;8.27;;
6362;SDS011;3214;49.932;8.494;2024-03-02T04:44:40;13.00;;;9.27;;
6362;SDS011;3214;49.932;8.494;2024-03-02T04:47:07;16.80;;;10.57;;
6362;SDS011;3214;49.932;8.494;2024-03-02T04:49:34;17.27;;;10.00;;
6362;SDS011;3214;49.932;8.494;2024-03-02T04:52:00;14.00;;;9.10;;
6362;SDS011;3214;49.932;8.494;2024-03-02T04:54:27;13.90;;;8.87;;
6362;SDS011;3214;49.932;8.494;2024-03-02T04:56:55;14.27;;;9.30;;
6362;SDS011;3214;49.932;8.494;2024-03-02T04:59:22;12.20;;;8.77;;
6362;SDS011;3214;49.932;8.494;2024-03-02T05:01:49;14.13;;;9.10;;
6362;SDS011;3214;49.932;8.494;2024-03-02T05:04:15;12.70;;;8.00;;
6362;SDS011;3214;49.932;8.494;2024-03-02T05:06:43;16.40;;;9.73;;
6362;SDS011;3214;49.932;8.494;2024-03-02T05:09:15;15.57;;;8.70;;
6362;SDS011;3214;49.932;8.494;2024-03-02T05:11:42;13.67;;;8.57;;
6362;SDS011;3214;49.932;8.494;2024-03-02T05:14:36;14.73;;;8.10;;
6362;SDS011;3214;49.932;8.494;2024-03-02T05:17:03;13.97;;;8.40;;
6362;SDS011;3214;49.932;8.494;2024-03-02T05:19:30;12.73;;;8.10;;
6362;SDS011;3214;49.932;8.494;2024-03-02T05:21:56;12.87;;;8.53;;
6362;SDS011;3214;49.932;8.494;2024-03-02T05:24:23;14.07;;;9.03;;
6362;SDS011;3214;49.932;8.494;2024-03-02T05:26:52;14.27;;;9.23;;
6362;SDS011;3214;49.932;8.494;2024-03-02T05:29:18;14.03;;;9.17;;
6362;SDS011;3214;49.932;8.494;2024-03-02T05:31:46;16.90;;;9.40;;
6362;SDS011;3214;49.932;8.494;2024-03-02T05:34:13;16.33;;;10.10;;
6362;SDS011;3214;49.932;8.494;2024-03-02T05:36:40;15.27;;;9.73;;
6362;SDS011;3214;49.932;8.494;2024-03-02T05:39:07;12.90;;;8.57;;
6362;SDS011;3214;49.932;8.494;2024-03-02T05:41:34;11.57;;;7.03;;
6362;SDS011;3214;49.932;8.494;2024-03-02T05:44:01;12.47;;;7.13;;
6362;SDS011;3214;49.932;8.494;2024-03-02T05:46:27;12.07;;;7.27;;
6362;SDS011;3214;49.932;8.494;2024-03-02T05:48:55;11.13;;;7.70;;
6362;SDS011;3214;49.932;8.494;2024-03-02T05:51:22;17.43;;;10.50;;
6362;SDS011;3214;49.932;8.494;2024-03-02T05:53:49;14.23;;;9.07;;
6362;SDS011;3214;49.932;8.494;2024-03-02T05:56:16;15.50;;;9.70;;
6362;SDS011;3214;49.932;8.494;2024-03-02T05:58:43;18.33;;;9.67;;
6362;SDS011;3214;49.932;8.494;2024-03-02T06:01:22;15.27;;;9.67;;
6362;SDS011;3214;49.932;8.494;2024-03-02T06:03:53;16.33;;;10.07;;
6362;SDS011;3214;49.932;8.494;2024-03-02T06:06:21;13.83;;;9.27;;
6362;SDS011;3214;49.932;8.494;2024-03-02T06:08:48;15.13;;;9.10;;
6362;SDS011;3214;49.932;8.494;2024-03-02T06:11:15;13.67;;;9.03;;
6362;SDS011;3214;49.932;8.494;2024-03-02T06:13:42;17.20;;;9.80;;
6362;SDS011;3214;49.932;8.494;2024-03-02T06:16:08;18.23;;;9.03;;
6362;SDS011;3214;49.932;8.494;2024-03-02T06:18:35;16.60;;;9.57;;
6362;SDS011;3214;49.932;8.494;2024-03-02T06:21:03;15.73;;;9.97;;
6362;SDS011;3214;49.932;8.494;2024-03-02T06:23:30;17.67;;;10.63;;
6362;SDS011;3214;49.932;8.494;2024-03-02T06:25:57;16.73;;;9.70;;
6362;SDS011;3214;49.932;8.494;2024-03-02T06:28:24;14.00;;;9.07;;
6362;SDS011;3214;49.932;8.494;2024-03-02T06:30:51;15.30;;;8.37;;
6362;SDS011;3214;49.932;8.494;2024-03-02T06:33:19;13.43;;;8.53;;
6362;SDS011;3214;49.932;8.494;2024-03-02T06:35:46;14.93;;;8.70;;
6362;SDS011;3214;49.932;8.494;2024-03-02T06:38:15;15.20;;;9.23;;
6362;SDS011;3214;49.932;8.494;2024-03-02T06:40:42;15.90;;;10.30;;
6362;SDS011;3214;49.932;8.494;2024-03-02T06:43:09;20.97;;;11.53;;
6362;SDS011;3214;49.932;8.494;2024-03-02T06:45:36;20.43;;;11.70;;
6362;SDS011;3214;49.932;8.494;2024-03-02T06:48:03;18.90;;;11.33;;
6362;SDS011;3214;49.932;8.494;2024-03-02T06:50:30;23.77;;;13.30;;
6362;SDS011;3214;49.932;8.494;2024-03-02T06:52:57;17.00;;;10.87;;
6362;SDS011;3214;49.932;8.494;2024-03-02T06:55:25;16.27;;;9.80;;
6362;SDS011;3214;49.932;8.494;2024-03-02T06:57:52;16.33;;;9.97;;
6362;SDS011;3214;49.932;8.494;2024-03-02T07:00:19;15.33;;;8.53;;
6362;SDS011;3214;49.932;8.494;2024-03-02T07:02:46;12.40;;;7.77;;
6362;SDS011;3214;49.932;8.494;2024-03-02T07:05:13;14.83;;;8.20;;
6362;SDS011;3214;49.932;8.494;2024-03-02T07:07:40;12.97;;;8.30;;
6362;SDS011;3214;49.932;8.494;2024-03-02T07:10:07;16.27;;;9.80;;
6362;SDS011;3214;49.932;8.494;2024-03-02T07:12:36;19.70;;;9.87;;
6362;SDS011;3214;49.932;8.494;2024-03-02T07:15:03;17.10;;;10.40;;
6362;SDS011;3214;49.932;8.494;2024-03-02T07:17:48;17.10;;;10.27;;
6362;SDS011;3214;49.932;8.494;2024-03-02T07:20:14;14.73;;;9.70;;
6362;SDS011;3214;49.932;8.494;2024-03-02T07:22:42;18.63;;;10.10;;
6362;SDS011;3214;49.932;8.494;2024-03-02T07:25:09;18.67;;;10.80;;
6362;SDS011;3214;49.932;8.494;2024-03-02T07:27:37;17.03;;;10.83;;
6362;SDS011;3214;49.932;8.494;2024-03-02T07:30:04;15.93;;;10.23;;
6362;SDS011;3214;49.932;8.494;2024-03-02T07:32:32;17.73;;;10.30;;
6362;SDS011;3214;49.932;8.494;2024-03-02T07:34:58;19.23;;;11.27;;
6362;SDS011;3214;49.932;8.494;2024-03-02T07:37:26;22.47;;;12.27;;
6362;SDS011;3214;49.932;8.494;2024-03-02T07:39:53;18.83;;;10.50;;
6362;SDS011;3214;49.932;8.494;2024-03-02T07:42:20;18.67;;;11.30;;
6362;SDS011;3214;49.932;8.494;2024-03-02T07:44:48;19.53;;;11.43;;
6362;SDS011;3214;49.932;8.494;2024-03-02T07:47:15;19.50;;;11.07;;
6362;SDS011;3214;49.932;8.494;2024-03-02T07:49:42;19.17;;;11.93;;
6362;SDS011;3214;49.932;8.494;2024-03-02T07:52:10;20.67;;;11.50;;
6362;SDS011;3214;49.932;8.494;2024-03-02T07:54:37;18.27;;;12.13;;
6362;SDS011;3214;49.932;8.494;2024-03-02T07:57:03;19.97;;;12.57;;
6362;SDS011;3214;49.932;8.494;2024-03-02T07:59:30;19.93;;;12.13;;
6362;SDS011;3214;49.932;8.494;2024-03-02T08:01:58;21.10;;;12.47;;
6362;SDS011;3214;49.932;8.494;2024-03-02T08:04:25;21.17;;;12.90;;
6362;SDS011;3214;49.932;8.494;2024-03-02T08:06:52;20.47;;;12.43;;
6362;SDS011;3214;49.932;8.494;2024-03-02T08:09:19;19.27;;;12.23;;
6362;SDS011;3214;49.932;8.494;2024-03-02T08:11:46;22.10;;;12.53;;
6362;SDS011;3214;49.932;8.494;2024-03-02T08:14:13;19.87;;;12.40;;
6362;SDS011;3214;49.932;8.494;2024-03-02T08:16:40;21.50;;;12.90;;
6362;SDS011;3214;49.932;8.494;2024-03-02T08:19:08;22.50;;;12.67;;
6362;SDS011;3214;49.932;8.494;2024-03-02T08:21:35;21.83;;;12.60;;
6362;SDS011;3214;49.932;8.494;2024-03-02T08:24:02;20.00;;;12.73;;
6362;SDS011;3214;49.932;8.494;2024-03-02T08:26:29;21.20;;;13.10;;
6362;SDS011;3214;49.932;8.494;2024-03-02T08:28:56;20.60;;;12.83;;
6362;SDS011;3214;49.932;8.494;2024-03-02T08:31:23;21.23;;;12.80;;
6362;SDS011;3214;49.932;8.494;2024-03-02T08:33:50;21.47;;;12.97;;
6362;SDS011;3214;49.932;8.494;2024-03-02T08:36:18;22.10;;;13.13;;
6362;SDS011;3214;49.932;8.494;2024-03-02T08:38:45;20.87;;;13.03;;
6362;SDS011;3214;49.932;8.494;2024-03-02T08:41:12;19.77;;;13.30;;
6362;SDS011;3214;49.932;8.494;2024-03-02T08:43:41;22.40;;;13.90;;
6362;SDS011;3214;49.932;8.494;2024-03-02T08:46:08;20.17;;;13.67;;
6362;SDS011;3214;49.932;8.494;2024-03-02T08:48:35;26.07;;;16.03;;
6362;SDS011;3214;49.932;8.494;2024-03-02T08:51:02;23.17;;;12.83;;
6362;SDS011;3214;49.932;8.494;2024-03-02T08:53:34;20.33;;;13.37;;
6362;SDS011;3214;49.932;8.494;2024-03-02T08:56:00;20.67;;;12.80;;
6362;SDS011;3214;49.932;8.494;2024-03-02T08:58:30;23.63;;;15.20;;
6362;SDS011;3214;49.932;8.494;2024-03-02T09:00:57;20.73;;;12.90;;
6362;SDS011;3214;49.932;8.494;2024-03-02T09:03:24;21.40;;;13.53;;
6362;SDS011;3214;49.932;8.494;2024-03-02T09:05:51;22.70;;;13.67;;
6362;SDS011;3214;49.932;8.494;2024-03-02T09:08:17;21.20;;;12.77;;
6362;SDS011;3214;49.932;8.494;2024-03-02T09:10:46;21.07;;;12.90;;
6362;SDS011;3214;49.932;8.494;2024-03-02T09:13:12;24.47;;;13.00;;
6362;SDS011;3214;49.932;8.494;2024-03-02T09:15:39;19.07;;;12.40;;
6362;SDS011;3214;49.932;8.494;2024-03-02T09:18:06;20.07;;;13.13;;
6362;SDS011;3214;49.932;8.494;2024-03-02T09:20:33;18.20;;;12.17;;
6362;SDS011;3214;49.932;8.494;2024-03-02T09:23:00;19.20;;;12.73;;
6362;SDS011;3214;49.932;8.494;2024-03-02T09:25:26;20.47;;;13.37;;
6362;SDS011;3214;49.932;8.494;2024-03-02T09:27:54;19.73;;;13.17;;
6362;SDS011;3214;49.932;8.494;2024-03-02T09:30:21;18.33;;;12.17;;
6362;SDS011;3214;49.932;8.494;2024-03-02T09:32:48;16.70;;;11.00;;
6362;SDS011;3214;49.932;8.494;2024-03-02T09:35:15;16.57;;;11.43;;
6362;SDS011;3214;49.932;8.494;2024-03-02T09:37:41;16.43;;;11.10;;
6362;SDS011;3214;49.932;8.494;2024-03-02T09:40:09;16.20;;;10.83;;
6362;SDS011;3214;49.932;8.494;2024-03-02T09:42:37;16.43;;;10.80;;
6362;SDS011;3214;49.932;8.494;2024-03-02T09:45:06;15.80;;;10.90;;
6362;SDS011;3214;49.932;8.494;2024-03-02T09:47:33;15.57;;;10.90;;
6362;SDS011;3214;49.932;8.494;2024-03-02T09:50:00;14.97;;;10.13;;
6362;SDS011;3214;49.932;8.494;2024-03-02T09:52:27;16.53;;;10.07;;
6362;SDS011;3214;49.932;8.494;2024-03-02T09:54:54;14.20;;;10.07;;
6362;SDS011;3214;49.932;8.494;2024-03-02T09:57:21;14.27;;;9.77;;
6362;SDS011;3214;49.932;8.494;2024-03-02T09:59:48;16.60;;;10.03;;
6362;SDS011;3214;49.932;8.494;2024-03-02T10:02:16;14.40;;;9.73;;
6362;SDS011;3214;49.932;8.494;2024-03-02T10:04:43;13.43;;;9.27;;
6362;SDS011;3214;49.932;8.494;2024-03-02T10:07:12;14.60;;;10.57;;
6362;SDS011;3214;49.932;8.494;2024-03-02T10:09:39;13.53;;;9.50;;
6362;SDS011;3214;49.932;8.494;2024-03-02T10:12:07;15.60;;;10.80;;
6362;SDS011;3214;49.932;8.494;2024-03-02T10:14:35;16.03;;;10.33;;
6362;SDS011;3214;49.932;8.494;2024-03-02T10:17:02;13.20;;;9.50;;
6362;SDS011;3214;49.932;8.494;2024-03-02T10:19:31;13.43;;;9.20;;
6362;SDS011;3214;49.932;8.494;2024-03-02T10:22:00;14.70;;;9.57;;
6362;SDS011;3214;49.932;8.494;2024-03-02T10:24:27;13.50;;;9.00;;
6362;SDS011;3214;49.932;8.494;2024-03-02T10:27:00;12.43;;;9.03;;
6362;SDS011;3214;49.932;8.494;2024-03-02T10:29:29;13.67;;;9.50;;
6362;SDS011;3214;49.932;8.494;2024-03-02T10:31:56;14.63;;;8.73;;
6362;SDS011;3214;49.932;8.494;2024-03-02T10:34:24;13.37;;;9.10;;
6362;SDS011;3214;49.932;8.494;2024-03-02T10:36:52;10.73;;;8.50;;
6362;SDS011;3214;49.932;8.494;2024-03-02T10:39:20;10.67;;;8.07;;
6362;SDS011;3214;49.932;8.494;2024-03-02T10:41:47;12.90;;;8.13;;
6362;SDS011;3214;49.932;8.494;2024-03-02T10:44:18;12.00;;;8.33;;
6362;SDS011;3214;49.932;8.494;2024-03-02T10:46:45;13.47;;;8.70;;
6362;SDS011;3214;49.932;8.494;2024-03-02T10:49:15;11.17;;;8.20;;
6362;SDS011;3214;49.932;8.494;2024-03-02T10:51:42;10.37;;;7.93;;
6362;SDS011;3214;49.932;8.494;2024-03-02T10:54:11;12.10;;;8.30;;
6362;SDS011;3214;49.932;8.494;2024-03-02T10:56:38;11.97;;;8.30;;
6362;SDS011;3214;49.932;8.494;2024-03-02T10:59:06;13.37;;;8.60;;
6362;SDS011;3214;49.932;8.494;2024-03-02T11:01:43;11.83;;;8.07;;
6362;SDS011;3214;49.932;8.494;2024-03-02T11:04:15;11.97;;;7.87;;
6362;SDS011;3214;49.932;8.494;2024-03-02T11:06:43;12.50;;;8.20;;
6362;SDS011;3214;49.932;8.494;2024-03-02T11:09:16;12.00;;;7.63;;
6362;SDS011;3214;49.932;8.494;2024-03-02T11:11:48;12.40;;;7.17;;
6362;SDS011;3214;49.932;8.494;2024-03-02T11:14:21;12.53;;;7.93;;
6362;SDS011;3214;49.932;8.494;2024-03-02T11:16:50;11.17;;;7.43;;
6362;SDS011;3214;49.932;8.494;2024-03-02T11:19:19;10.80;;;7.33;;
6362;SDS011;3214;49.932;8.494;2024-03-02T11:21:46;9.47;;;6.87;;
6362;SDS011;3214;49.932;8.494;2024-03-02T11:24:31;8.90;;;6.37;;
6362;SDS011;3214;49.932;8.494;2024-03-02T11:27:02;10.53;;;7.10;;
6362;SDS011;3214;49.932;8.494;2024-03-02T11:29:45;8.90;;;6.60;;
6362;SDS011;3214;49.932;8.494;2024-03-02T11:32:14;10.47;;;6.70;;
6362;SDS011;3214;49.932;8.494;2024-03-02T11:34:43;9.20;;;6.60;;
6362;SDS011;3214;49.932;8.494;2024-03-02T11:37:12;10.30;;;6.77;;
6362;SDS011;3214;49.932;8.494;2024-03-02T11:39:41;8.40;;;6.53;;
6362;SDS011;3214;49.932;8.494;2024-03-02T11:42:09;10.23;;;6.37;;
6362;SDS011;3214;49.932;8.494;2024-03-02T11:44:39;7.17;;;5.73;;
6362;SDS011;3214;49.932;8.494;2024-03-02T11:47:07;9.40;;;6.40;;
6362;SDS011;3214;49.932;8.494;2024-03-02T11:49:37;9.80;;;6.53;;
6362;SDS011;3214;49.932;8.494;2024-03-02T11:52:05;8.90;;;6.07;;
6362;SDS011;3214;49.932;8.494;2024-03-02T11:54:33;6.80;;;5.30;;
6362;SDS011;3214;49.932;8.494;2024-03-02T11:57:02;6.53;;;5.23;;
6362;SDS011;3214;49.932;8.494;2024-03-02T11:59:29;7.60;;;5.10;;
6362;SDS011;3214;49.932;8.494;2024-03-02T12:01:56;7.13;;;4.87;;
6362;SDS011;3214;49.932;8.494;2024-03-02T12:04:24;6.23;;;4.67;;
6362;SDS011;3214;49.932;8.494;2024-03-02T12:06:54;7.10;;;5.10;;
6362;SDS011;3214;49.932;8.494;2024-03-02T12:09:21;6.53;;;4.70;;
6362;SDS011;3214;49.932;8.494;2024-03-02T12:11:48;6.13;;;4.50;;
6362;SDS011;3214;49.932;8.494;2024-03-02T12:14:30;9.27;;;5.13;;
6362;SDS011;3214;49.932;8.494;2024-03-02T12:16:57;7.10;;;4.50;;
6362;SDS011;3214;49.932;8.494;2024-03-02T12:19:24;7.43;;;4.40;;
6362;SDS011;3214;49.932;8.494;2024-03-02T12:21:51;4.83;;;3.73;;
6362;SDS011;3214;49.932;8.494;2024-03-02T12:24:18;4.33;;;3.30;;
6362;SDS011;3214;49.932;8.494;2024-03-02T12:26:45;4.67;;;3.40;;
6362;SDS011;3214;49.932;8.494;2024-03-02T12:29:14;5.60;;;3.27;;
6362;SDS011;3214;49.932;8.494;2024-03-02T12:31:41;5.27;;;3.33;;
6362;SDS011;3214;49.932;8.494;2024-03-02T12:34:10;5.10;;;3.80;;
6362;SDS011;3214;49.932;8.494;2024-03-02T12:36:38;4.37;;;3.80;;
6362;SDS011;3214;49.932;8.494;2024-03-02T12:39:06;4.97;;;3.70;;
6362;SDS011;3214;49.932;8.494;2024-03-02T12:41:35;4.40;;;3.93;;
6362;SDS011;3214;49.932;8.494;2024-03-02T12:44:02;3.97;;;3.37;;
6362;SDS011;3214;49.932;8.494;2024-03-02T12:46:30;4.73;;;3.40;;
6362;SDS011;3214;49.932;8.494;2024-03-02T12:48:58;3.63;;;3.10;;
6362;SDS011;3214;49.932;8.494;2024-03-02T12:51:26;5.30;;;3.70;;
6362;SDS011;3214;49.932;8.494;2024-03-02T12:53:54;4.07;;;3.40;;
6362;SDS011;3214;49.932;8.494;2024-03-02T12:56:21;4.10;;;3.27;;
6362;SDS011;3214;49.932;8.494;2024-03-02T12:58:52;6.37;;;3.43;;
6362;SDS011;3214;49.932;8.494;2024-03-02T13:01:20;3.70;;;3.30;;
6362;SDS011;3214;49.932;8.494;2024-03-02T13:03:50;4.43;;;3.30;;
6362;SDS011;3214;49.932;8.494;2024-03-02T13:06:19;5.10;;;3.73;;
6362;SDS011;3214;49.932;8.494;2024-03-02T13:08:47;4.73;;;3.63;;
6362;SDS011;3214;49.932;8.494;2024-03-02T13:11:15;3.93;;;3.00;;
6362;SDS011;3214;49.932;8.494;2024-03-02T13:13:43;6.10;;;3.77;;
6362;SDS011;3214;49.932;8.494;2024-03-02T13:16:11;9.97;;;6.00;;
6362;SDS011;3214;49.932;8.494;2024-03-02T13:18:41;11.53;;;7.90;;
6362;SDS011;3214;49.932;8.494;2024-03-02T13:21:10;6.40;;;4.73;;
6362;SDS011;3214;49.932;8.494;2024-03-02T13:23:37;6.63;;;4.23;;
6362;SDS011;3214;49.932;8.494;2024-03-02T13:26:05;7.60;;;4.20;;
6362;SDS011;3214;49.932;8.494;2024-03-02T13:28:32;4.50;;;3.23;;
6362;SDS011;3214;49.932;8.494;2024-03-02T13:31:00;9.10;;;6.10;;
6362;SDS011;3214;49.932;8.494;2024-03-02T13:33:28;6.20;;;4.03;;
6362;SDS011;3214;49.932;8.494;2024-03-02T13:35:56;18.67;;;11.43;;
6362;SDS011;3214;49.932;8.494;2024-03-02T13:38:24;5.67;;;3.30;;
6362;SDS011;3214;49.932;8.494;2024-03-02T13:40:54;5.00;;;3.63;;
6362;SDS011;3214;49.932;8.494;2024-03-02T13:43:22;3.97;;;3.40;;
6362;SDS011;3214;49.932;8.494;2024-03-02T13:45:50;8.67;;;5.10;;
6362;SDS011;3214;49.932;8.494;2024-03-02T13:48:18;5.17;;;4.43;;
6362;SDS011;3214;49.932;8.494;2024-03-02T13:50:46;6.33;;;4.93;;
6362;SDS011;3214;49.932;8.494;2024-03-02T13:53:14;11.33;;;9.03;;
6362;SDS011;3214;49.932;8.494;2024-03-02T13:55:43;5.87;;;3.30;;
6362;SDS011;3214;49.932;8.494;2024-03-02T13:58:10;3.63;;;2.80;;
6362;SDS011;3214;49.932;8.494;2024-03-02T14:00:37;4.70;;;2.90;;
6362;SDS011;3214;49.932;8.494;2024-03-02T14:03:06;4.03;;;2.90;;
6362;SDS011;3214;49.932;8.494;2024-03-02T14:05:33;3.63;;;3.00;;
6362;SDS011;3214;49.932;8.494;2024-03-02T14:08:00;4.77;;;2.87;;
6362;SDS011;3214;49.932;8.494;2024-03-02T14:10:27;4.23;;;3.37;;
6362;SDS011;3214;49.932;8.494;2024-03-02T14:12:55;3.17;;;2.60;;
6362;SDS011;3214;49.932;8.494;2024-03-02T14:15:23;4.80;;;2.80;;
6362;SDS011;3214;49.932;8.494;2024-03-02T14:17:50;5.60;;;4.60;;
6362;SDS011;3214;49.932;8.494;2024-03-02T14:20:17;5.03;;;3.87;;
6362;SDS011;3214;49.932;8.494;2024-03-02T14:22:47;4.73;;;2.90;;
6362;SDS011;3214;49.932;8.494;2024-03-02T14:25:15;3.43;;;2.70;;
6362;SDS011;3214;49.932;8.494;2024-03-02T14:27:43;5.13;;;2.83;;
6362;SDS011;3214;49.932;8.494;2024-03-02T14:30:12;3.83;;;2.77;;
6362;SDS011;3214;49.932;8.494;2024-03-02T14:32:40;3.57;;;2.67;;
6362;SDS011;3214;49.932;8.494;2024-03-02T14:35:08;3.37;;;2.80;;
6362;SDS011;3214;49.932;8.494;2024-03-02T14:37:36;3.67;;;2.80;;
6362;SDS011;3214;49.932;8.494;2024-03-02T14:40:04;3.43;;;2.60;;
6362;SDS011;3214;49.932;8.494;2024-03-02T14:42:34;3.33;;;2.70;;
6362;SDS011;3214;49.932;8.494;2024-03-02T14:45:02;3.27;;;2.83;;
6362;SDS011;3214;49.932;8.494;2024-03-02T14:47:32;4.57;;;2.97;;
6362;SDS011;3214;49.932;8.494;2024-03-02T14:50:00;5.17;;;2.90;;
6362;SDS011;3214;49.932;8.494;2024-03-02T14:52:31;3.53;;;2.80;;
6362;SDS011;3214;49.932;8.494;2024-03-02T14:54:59;3.83;;;2.63;;
6362;SDS011;3214;49.932;8.494;2024-03-02T14:57:27;4.43;;;2.43;;
6362;SDS011;3214;49.932;8.494;2024-03-02T14:59:55;3.87;;;2.90;;
6362;SDS011;3214;49.932;8.494;2024-03-02T15:02:22;2.80;;;2.20;;
6362;SDS011;3214;49.932;8.494;2024-03-02T15:04:53;3.50;;;2.33;;
6362;SDS011;3214;49.932;8.494;2024-03-02T15:07:20;2.93;;;2.60;;
6362;SDS011;3214;49.932;8.494;2024-03-02T15:09:48;4.07;;;2.87;;